createdAt,value
2022-09-05T00:06:22.641Z,98128.50
2022-09-05T00:16:31.252Z,98122.59
2022-09-05T00:26:53.418Z,98107.41
2022-09-05T00:36:56.007Z,98105.00
2022-09-05T00:47:16.883Z,98092.03
2022-09-05T00:57:56.606Z,98098.97
2022-09-05T01:08:07.335Z,98107.47
2022-09-05T01:18:15.585Z,98105.69
2022-09-05T01:29:15.698Z,98102.75
2022-09-05T01:40:11.228Z,98108.50
2022-09-05T01:49:38.056Z,98104.19
2022-09-05T01:59:56.458Z,98098.28
2022-09-05T02:10:17.030Z,98102.94
2022-09-05T02:20:28.305Z,98102.25
2022-09-05T02:30:37.630Z,98099.59
2022-09-05T02:45:09.512Z,98090.94
2022-09-05T02:57:29.370Z,98084.44
2022-09-05T03:02:26.065Z,98082.84
2022-09-05T03:13:02.824Z,98081.00
2022-09-05T03:24:04.532Z,98081.84
2022-09-05T03:34:50.449Z,98082.41
2022-09-05T03:45:21.499Z,98087.28
2022-09-05T03:57:27.199Z,98098.16
2022-09-05T04:08:18.631Z,98099.81
2022-09-05T04:17:19.423Z,98105.31
2022-09-05T04:27:21.745Z,98103.41
2022-09-05T04:37:48.899Z,98116.75
2022-09-05T04:47:55.493Z,98125.72
2022-09-05T04:58:07.673Z,98137.12
2022-09-05T05:08:38.130Z,98136.84
2022-09-05T05:19:03.096Z,98154.53
2022-09-05T05:29:19.805Z,98175.97
2022-09-05T05:39:30.727Z,98180.31
2022-09-05T05:50:04.755Z,98197.44
2022-09-05T06:00:41.886Z,98204.72
2022-09-05T06:14:55.983Z,98212.56
2022-09-05T06:22:20.599Z,98211.13
2022-09-05T06:32:58.241Z,98209.47
2022-09-05T06:43:05.109Z,98225.97
2022-09-05T06:54:08.547Z,98231.03
2022-09-05T07:04:49.260Z,98230.34
2022-09-05T07:15:18.613Z,98250.13
2022-09-05T07:25:31.657Z,98244.25
2022-09-05T07:35:42.452Z,98250.00
2022-09-05T07:46:29.773Z,98276.38
2022-09-05T07:57:29.964Z,98297.69
2022-09-05T08:07:48.660Z,98317.44
2022-09-05T08:18:35.239Z,98320.75
2022-09-05T08:52:07.639Z,98325.91
2022-09-05T09:13:57.111Z,98307.09
2022-09-05T09:24:16.668Z,98286.69
2022-09-05T09:34:53.569Z,98273.03
2022-09-05T09:56:53.199Z,98235.34
2022-09-05T10:10:43.645Z,98226.38
2022-09-05T10:18:15.618Z,98218.56
2022-09-05T10:28:23.647Z,98219.31
2022-09-05T10:38:45.956Z,98219.16
2022-09-05T10:49:00.885Z,98208.25
2022-09-05T11:01:43.204Z,98201.19
2022-09-05T11:10:31.814Z,98186.28
2022-09-05T11:20:52.228Z,98184.59
2022-09-05T11:42:34.327Z,98154.72
2022-09-05T12:04:17.290Z,98134.37
2022-09-05T12:14:46.524Z,98129.22
2022-09-05T12:27:38.397Z,98115.34
2022-09-05T12:40:00.930Z,98111.56
2022-09-05T12:47:19.518Z,98106.44
2022-09-05T13:02:00.099Z,98083.81
2022-09-05T13:07:58.639Z,98090.91
2022-09-05T13:18:51.553Z,98068.44
2022-09-05T13:29:12.291Z,98060.00
2022-09-05T13:50:34.013Z,98047.81
2022-09-05T14:00:46.143Z,98038.88
2022-09-05T14:11:04.778Z,98028.41
2022-09-05T14:21:18.927Z,98011.72
2022-09-05T14:35:33.292Z,98008.69
2022-09-05T14:42:46.429Z,97981.50
2022-09-05T15:14:21.249Z,97942.63
2022-09-05T15:24:30.991Z,97934.66
2022-09-05T15:34:34.191Z,97927.00
2022-09-05T15:45:06.272Z,97916.00
2022-09-05T15:55:14.295Z,97893.81
2022-09-05T16:10:28.828Z,97890.84
2022-09-05T16:21:23.368Z,97888.50
2022-09-05T16:26:25.784Z,97875.69
2022-09-05T16:37:08.613Z,97864.06
2022-09-05T16:47:36.409Z,97870.69
2022-09-05T16:57:57.859Z,97874.25
2022-09-05T17:08:08.591Z,97870.84
2022-09-05T17:18:25.036Z,97861.41
2022-09-05T17:29:26.225Z,97853.88
2022-09-05T17:39:45.027Z,97845.91
2022-09-05T17:49:48.746Z,97840.69
2022-09-05T17:59:52.055Z,97838.22
2022-09-05T18:10:14.492Z,97859.87
2022-09-05T18:21:21.365Z,97862.69
2022-09-05T18:31:43.425Z,97856.12
2022-09-05T18:41:47.262Z,97861.41
2022-09-05T18:52:00.950Z,97873.81
2022-09-05T19:02:40.368Z,97892.59
2022-09-05T19:12:52.473Z,97878.62
2022-09-05T19:23:10.748Z,97889.13
2022-09-05T19:37:10.400Z,97878.84
2022-09-05T19:47:33.797Z,97888.22
2022-09-05T19:54:31.488Z,97896.44
2022-09-05T20:04:45.297Z,97900.78
2022-09-05T20:14:48.390Z,97897.53
2022-09-05T20:24:51.232Z,97903.75
2022-09-05T20:38:16.433Z,97901.16
2022-09-05T20:46:12.110Z,97906.44
2022-09-05T20:56:28.376Z,97911.19
2022-09-05T21:06:35.706Z,97906.13
2022-09-05T21:16:45.973Z,97916.53
2022-09-05T21:26:50.121Z,97905.69
2022-09-05T21:36:57.922Z,97905.34
2022-09-05T21:47:40.772Z,97908.28
2022-09-05T21:59:25.916Z,97896.16
2022-09-05T22:08:01.931Z,97885.97
2022-09-05T22:18:17.510Z,97889.13
2022-09-05T22:28:30.329Z,97887.47
2022-09-05T22:38:43.534Z,97883.72
2022-09-05T22:48:46.110Z,97880.63
2022-09-05T22:58:48.415Z,97888.25
2022-09-05T23:08:51.174Z,97888.69
2022-09-05T23:18:53.559Z,97880.81
2022-09-05T23:28:56.070Z,97883.25
2022-09-05T23:38:58.808Z,97884.00
2022-09-05T23:49:01.312Z,97894.03
2022-09-05T23:59:03.775Z,97896.84
